createdAt,value
2023-05-21T00:00:38.344Z,9.32
2023-05-21T00:03:05.091Z,9.98
2023-05-21T00:05:32.529Z,15.82
2023-05-21T00:07:59.209Z,9.60
2023-05-21T00:10:26.501Z,10.70
2023-05-21T00:12:53.253Z,10.52
2023-05-21T00:15:20.025Z,12.52
2023-05-21T00:17:46.876Z,10.40
2023-05-21T00:20:13.691Z,10.05
2023-05-21T00:22:42.202Z,12.35
2023-05-21T00:25:09.743Z,10.35
2023-05-21T00:27:36.429Z,13.70
2023-05-21T00:30:04.042Z,14.15
2023-05-21T00:32:30.741Z,9.90
2023-05-21T00:34:58.249Z,12.65
2023-05-21T00:37:25.030Z,12.43
2023-05-21T00:39:51.637Z,12.63
2023-05-21T00:42:19.009Z,11.98
2023-05-21T00:44:46.272Z,10.27
2023-05-21T00:47:13.472Z,9.80
2023-05-21T00:49:40.200Z,10.45
2023-05-21T00:52:07.214Z,13.30
2023-05-21T00:54:33.858Z,9.55
2023-05-21T00:57:00.540Z,11.65
2023-05-21T00:59:27.402Z,10.35
2023-05-21T01:01:56.453Z,10.27
2023-05-21T01:04:24.010Z,8.77
2023-05-21T01:06:50.965Z,13.90
2023-05-21T01:09:17.839Z,9.45
2023-05-21T01:11:46.985Z,10.93
2023-05-21T01:14:14.668Z,9.75
2023-05-21T01:16:42.807Z,9.23
2023-05-21T01:19:11.544Z,8.65
2023-05-21T01:21:41.512Z,10.02
2023-05-21T01:24:08.129Z,9.13
2023-05-21T01:26:38.456Z,10.38
2023-05-21T01:29:06.543Z,9.95
2023-05-21T01:31:38.113Z,9.88
2023-05-21T01:34:05.570Z,9.13
2023-05-21T01:36:34.599Z,9.73
2023-05-21T01:39:04.162Z,8.85
2023-05-21T01:41:33.643Z,11.65
2023-05-21T01:44:00.344Z,11.23
2023-05-21T01:46:27.896Z,8.35
2023-05-21T01:48:55.193Z,9.43
2023-05-21T01:51:21.843Z,9.30
2023-05-21T01:53:48.547Z,9.27
2023-05-21T01:56:15.852Z,10.40
2023-05-21T01:58:43.926Z,11.15
2023-05-21T02:01:11.673Z,9.02
2023-05-21T02:03:38.643Z,7.60
2023-05-21T02:06:05.451Z,9.15
2023-05-21T02:08:33.325Z,10.85
2023-05-21T02:10:59.994Z,9.48
2023-05-21T02:13:27.045Z,9.63
2023-05-21T02:15:54.637Z,8.93
2023-05-21T02:18:21.813Z,8.80
2023-05-21T02:20:48.571Z,8.98
2023-05-21T02:23:15.543Z,9.85
2023-05-21T02:25:42.442Z,11.55
2023-05-21T02:28:09.076Z,8.00
2023-05-21T02:30:36.472Z,9.05
2023-05-21T02:33:03.215Z,7.60
2023-05-21T02:35:29.884Z,9.13
2023-05-21T02:37:59.138Z,9.00
2023-05-21T02:40:26.071Z,9.75
2023-05-21T02:42:52.763Z,10.95
2023-05-21T02:45:19.429Z,7.90
2023-05-21T02:47:46.101Z,7.85
2023-05-21T02:50:13.861Z,8.18
2023-05-21T02:52:41.474Z,8.25
2023-05-21T02:55:08.681Z,9.98
2023-05-21T02:57:35.396Z,13.18
2023-05-21T03:00:02.197Z,7.72
2023-05-21T03:02:30.049Z,8.05
2023-05-21T03:04:56.925Z,9.38
2023-05-21T03:07:24.250Z,11.18
2023-05-21T03:09:51.100Z,8.57
2023-05-21T03:12:17.779Z,9.35
2023-05-21T03:14:46.404Z,10.38
2023-05-21T03:17:15.009Z,9.07
2023-05-21T03:19:41.798Z,13.80
2023-05-21T03:22:08.553Z,8.70
2023-05-21T03:24:35.350Z,9.02
2023-05-21T03:27:02.185Z,9.18
2023-05-21T03:29:28.878Z,9.50
2023-05-21T03:31:55.751Z,9.45
2023-05-21T03:34:23.147Z,8.50
2023-05-21T03:36:50.094Z,7.18
2023-05-21T03:39:16.909Z,7.88
2023-05-21T03:41:43.550Z,8.43
2023-05-21T03:44:10.421Z,7.45
2023-05-21T03:46:37.210Z,7.07
2023-05-21T03:49:03.880Z,18.95
2023-05-21T03:51:31.520Z,9.10
2023-05-21T03:53:59.072Z,7.22
2023-05-21T03:56:26.134Z,7.90
2023-05-21T03:58:52.841Z,7.85
2023-05-21T04:01:19.623Z,10.40
2023-05-21T04:03:46.460Z,10.32
2023-05-21T04:06:13.729Z,7.93
2023-05-21T04:08:40.382Z,8.70
2023-05-21T04:11:07.032Z,7.05
2023-05-21T04:13:33.833Z,9.27
2023-05-21T04:16:00.697Z,9.98
2023-05-21T04:18:27.472Z,8.80
2023-05-21T04:20:54.154Z,7.75
2023-05-21T04:23:23.307Z,12.80
2023-05-21T04:25:50.825Z,13.55
2023-05-21T04:28:21.215Z,9.30
2023-05-21T04:30:48.057Z,9.98
2023-05-21T04:33:18.243Z,11.10
2023-05-21T04:35:49.887Z,10.77
2023-05-21T04:38:20.528Z,9.95
2023-05-21T04:40:52.183Z,7.93
2023-05-21T04:43:25.419Z,10.35
2023-05-21T04:45:54.658Z,9.40
2023-05-21T04:48:24.773Z,12.02
2023-05-21T04:50:52.003Z,10.10
2023-05-21T04:53:18.741Z,10.30
2023-05-21T04:55:46.877Z,10.68
2023-05-21T04:58:13.700Z,9.55
2023-05-21T05:00:42.145Z,8.93
2023-05-21T05:03:08.916Z,9.60
2023-05-21T05:05:35.976Z,9.98
2023-05-21T05:08:03.940Z,9.63
2023-05-21T05:10:30.649Z,9.13
2023-05-21T05:12:57.499Z,10.70
2023-05-21T05:15:24.297Z,7.70
2023-05-21T05:17:51.220Z,10.07
2023-05-21T05:20:18.108Z,10.55
2023-05-21T05:22:44.757Z,10.90
2023-05-21T05:25:11.476Z,11.20
2023-05-21T05:27:38.719Z,10.75
2023-05-21T05:30:06.576Z,11.57
2023-05-21T05:32:33.282Z,10.25
2023-05-21T05:35:02.201Z,9.50
2023-05-21T05:37:29.361Z,8.98
2023-05-21T05:39:56.277Z,10.15
2023-05-21T05:42:23.265Z,8.18
2023-05-21T05:44:49.938Z,10.00
2023-05-21T05:47:17.035Z,8.57
2023-05-21T05:49:43.742Z,9.75
2023-05-21T05:52:10.678Z,11.63
2023-05-21T05:54:37.404Z,9.90
2023-05-21T05:57:04.337Z,9.73
2023-05-21T05:59:33.648Z,12.68
2023-05-21T06:02:01.174Z,9.00
2023-05-21T06:04:30.074Z,8.50
2023-05-21T06:07:01.286Z,12.18
2023-05-21T06:09:27.997Z,10.05
2023-05-21T06:11:55.619Z,11.82
2023-05-21T06:14:22.388Z,11.27
2023-05-21T06:16:49.123Z,10.40
2023-05-21T06:19:16.101Z,18.23
2023-05-21T06:21:42.812Z,20.83
2023-05-21T06:24:09.523Z,12.98
2023-05-21T06:26:36.354Z,16.63
2023-05-21T06:29:03.875Z,13.50
2023-05-21T06:31:33.018Z,12.13
2023-05-21T06:36:29.884Z,7.45
2023-05-21T06:38:57.277Z,7.85
2023-05-21T06:41:24.312Z,7.95
2023-05-21T06:43:51.353Z,9.32
2023-05-21T06:46:18.105Z,8.88
2023-05-21T06:48:45.850Z,8.93
2023-05-21T06:51:15.914Z,7.72
2023-05-21T06:53:42.612Z,8.77
2023-05-21T06:56:09.332Z,8.65
2023-05-21T06:58:35.991Z,8.98
2023-05-21T07:01:02.995Z,7.40
2023-05-21T07:03:29.843Z,9.57
2023-05-21T07:05:59.652Z,8.68
2023-05-21T07:08:26.309Z,6.95
2023-05-21T07:10:53.000Z,6.70
2023-05-21T07:13:19.741Z,7.15
2023-05-21T07:15:46.482Z,8.45
2023-05-21T07:18:13.386Z,7.28
2023-05-21T07:20:43.686Z,7.50
2023-05-21T07:23:10.855Z,6.50
2023-05-21T07:25:37.836Z,7.78
2023-05-21T07:28:06.630Z,8.07
2023-05-21T07:30:33.680Z,8.18
2023-05-21T07:33:00.428Z,11.15
2023-05-21T07:35:27.216Z,8.15
2023-05-21T07:37:53.890Z,6.25
2023-05-21T07:40:20.649Z,10.30
2023-05-21T07:42:47.388Z,8.20
2023-05-21T07:45:24.280Z,8.57
2023-05-21T07:47:51.086Z,9.05
2023-05-21T07:50:17.921Z,7.10
2023-05-21T07:52:44.631Z,6.72
2023-05-21T07:55:11.463Z,6.25
2023-05-21T07:57:38.553Z,11.07
2023-05-21T08:00:09.287Z,6.18
2023-05-21T08:02:36.229Z,10.55
2023-05-21T08:05:03.447Z,7.32
2023-05-21T08:07:31.797Z,8.80
2023-05-21T08:09:58.812Z,8.70
2023-05-21T08:12:25.768Z,9.23
2023-05-21T08:14:52.907Z,8.65
2023-05-21T08:17:19.697Z,9.35
2023-05-21T08:19:46.418Z,9.40
2023-05-21T08:22:13.592Z,9.07
2023-05-21T08:24:41.793Z,7.68
2023-05-21T08:27:08.588Z,10.23
2023-05-21T08:29:35.296Z,12.00
2023-05-21T08:32:02.306Z,9.63
2023-05-21T08:34:29.076Z,8.63
2023-05-21T08:36:55.884Z,6.90
2023-05-21T08:39:22.581Z,8.82
2023-05-21T08:41:51.919Z,8.73
2023-05-21T08:44:21.000Z,7.35
2023-05-21T08:46:49.730Z,10.15
2023-05-21T08:49:17.397Z,7.03
2023-05-21T08:51:44.493Z,9.85
2023-05-21T08:54:13.936Z,8.25
2023-05-21T09:02:00.361Z,7.68
2023-05-21T09:04:28.022Z,7.57
2023-05-21T09:06:54.796Z,9.75
2023-05-21T09:09:31.881Z,7.18
2023-05-21T09:11:59.204Z,8.38
2023-05-21T09:14:26.615Z,9.30
2023-05-21T09:16:53.483Z,8.80
2023-05-21T09:19:22.391Z,10.32
2023-05-21T09:21:51.599Z,8.60
2023-05-21T09:24:18.355Z,10.48
2023-05-21T09:26:45.126Z,9.38
2023-05-21T09:29:13.168Z,7.97
2023-05-21T09:31:47.187Z,10.20
2023-05-21T09:34:14.442Z,7.13
2023-05-21T09:36:41.132Z,7.68
2023-05-21T09:39:08.672Z,9.07
2023-05-21T09:41:36.201Z,7.72
2023-05-21T09:44:03.426Z,7.22
2023-05-21T09:46:45.482Z,11.15
2023-05-21T09:49:29.586Z,7.43
2023-05-21T09:51:57.098Z,6.97
2023-05-21T09:54:24.447Z,6.85
2023-05-21T09:56:53.649Z,7.95
2023-05-21T09:59:20.899Z,6.35
2023-05-21T10:01:50.017Z,6.18
2023-05-21T10:04:16.926Z,7.25
2023-05-21T10:06:43.836Z,10.05
2023-05-21T10:09:11.236Z,11.25
2023-05-21T10:11:38.067Z,9.25
2023-05-21T10:14:07.426Z,6.95
2023-05-21T10:16:34.843Z,11.10
2023-05-21T10:19:01.591Z,11.10
2023-05-21T10:21:28.295Z,7.85
2023-05-21T10:23:57.113Z,6.35
2023-05-21T10:26:24.132Z,6.97
2023-05-21T10:28:52.358Z,7.53
2023-05-21T10:31:19.074Z,7.88
2023-05-21T10:33:45.845Z,8.05
2023-05-21T10:36:12.510Z,7.97
2023-05-21T10:38:39.221Z,7.75
2023-05-21T10:41:06.774Z,6.03
2023-05-21T10:46:37.802Z,5.90
2023-05-21T10:49:30.882Z,5.43
2023-05-21T10:52:35.358Z,5.45
2023-05-21T10:55:26.315Z,6.80
2023-05-21T10:58:30.313Z,7.97
2023-05-21T11:00:57.025Z,5.82
2023-05-21T11:03:23.816Z,6.90
2023-05-21T11:05:58.005Z,6.95
2023-05-21T11:08:31.456Z,8.13
2023-05-21T11:10:58.814Z,10.35
2023-05-21T11:13:26.476Z,9.90
2023-05-21T11:21:17.719Z,6.95
2023-05-21T11:26:58.398Z,7.82
2023-05-21T11:29:40.296Z,7.85
2023-05-21T11:32:09.136Z,12.30
2023-05-21T11:34:39.601Z,5.53
2023-05-21T11:37:26.742Z,8.60
2023-05-21T11:39:53.632Z,6.93
2023-05-21T11:42:39.285Z,6.35
2023-05-21T11:45:06.382Z,7.38
2023-05-21T11:47:33.238Z,8.05
2023-05-21T11:50:01.478Z,6.53
2023-05-21T11:52:31.719Z,10.38
2023-05-21T11:54:59.572Z,7.80
2023-05-21T11:57:30.645Z,6.68
2023-05-21T11:59:59.075Z,5.93
2023-05-21T12:02:31.641Z,5.82
2023-05-21T12:04:59.995Z,5.57
2023-05-21T12:07:28.742Z,7.43
2023-05-21T12:09:55.650Z,5.10
2023-05-21T12:12:24.372Z,7.55
2023-05-21T12:14:52.204Z,6.13
2023-05-21T12:17:20.464Z,6.10
2023-05-21T12:19:47.499Z,5.55
2023-05-21T12:22:16.459Z,5.35
2023-05-21T12:24:45.125Z,5.20
2023-05-21T12:27:13.180Z,6.55
2023-05-21T12:29:41.522Z,7.25
2023-05-21T12:32:10.650Z,5.82
2023-05-21T12:34:39.321Z,7.38
2023-05-21T12:37:07.753Z,6.88
2023-05-21T12:39:39.509Z,8.27
2023-05-21T12:42:07.058Z,6.80
2023-05-21T12:44:36.026Z,8.57
2023-05-21T12:47:03.521Z,7.88
2023-05-21T12:49:33.700Z,8.60
2023-05-21T12:52:02.931Z,8.20
2023-05-21T12:54:32.931Z,7.45
2023-05-21T12:57:07.690Z,6.00
2023-05-21T12:59:53.033Z,6.72
2023-05-21T13:02:21.757Z,6.15
2023-05-21T13:04:48.864Z,5.40
2023-05-21T13:07:16.531Z,5.75
2023-05-21T13:09:43.360Z,5.75
2023-05-21T13:12:10.869Z,7.63
2023-05-21T13:14:37.509Z,6.68
2023-05-21T13:17:04.285Z,5.35
2023-05-21T13:19:31.068Z,9.02
2023-05-21T13:21:57.914Z,11.07
2023-05-21T13:24:24.670Z,5.88
2023-05-21T13:26:51.399Z,6.90
2023-05-21T13:29:18.290Z,7.43
2023-05-21T13:31:45.128Z,5.65
2023-05-21T13:34:13.012Z,7.85
2023-05-21T13:36:40.660Z,6.15
2023-05-21T13:39:07.469Z,8.40
2023-05-21T13:41:34.314Z,8.65
2023-05-21T13:44:00.987Z,8.43
2023-05-21T13:46:27.895Z,8.23
2023-05-21T13:48:54.725Z,5.75
2023-05-21T13:51:37.423Z,6.82
2023-05-21T13:54:05.548Z,7.40
2023-05-21T13:56:33.775Z,7.40
2023-05-21T13:59:01.363Z,10.77
2023-05-21T14:01:28.070Z,6.78
2023-05-21T14:03:54.887Z,7.30
2023-05-21T14:06:21.502Z,7.75
2023-05-21T14:08:48.416Z,10.18
2023-05-21T14:11:15.143Z,6.22
2023-05-21T14:13:42.109Z,7.20
2023-05-21T14:16:08.802Z,14.18
2023-05-21T14:18:35.596Z,9.07
2023-05-21T14:21:02.414Z,9.32
2023-05-21T14:23:29.206Z,9.32
2023-05-21T14:25:56.002Z,8.45
2023-05-21T14:28:22.762Z,8.82
2023-05-21T14:30:49.473Z,8.52
2023-05-21T14:33:16.954Z,9.07
2023-05-21T14:35:44.219Z,11.52
2023-05-21T14:38:11.245Z,6.47
2023-05-21T14:40:37.916Z,5.60
2023-05-21T14:43:05.594Z,7.43
2023-05-21T14:45:35.262Z,11.50
2023-05-21T14:48:08.244Z,8.13
2023-05-21T14:50:35.789Z,7.72
2023-05-21T14:53:05.835Z,15.57
2023-05-21T14:55:36.152Z,8.75
2023-05-21T14:58:05.393Z,7.20
2023-05-21T15:00:32.416Z,7.35
2023-05-21T15:02:59.181Z,8.43
2023-05-21T15:05:27.813Z,7.95
2023-05-21T15:07:55.954Z,8.18
2023-05-21T15:10:24.223Z,7.70
2023-05-21T15:12:51.223Z,8.07
2023-05-21T15:15:20.595Z,9.23
2023-05-21T15:17:47.953Z,8.25
2023-05-21T15:20:14.789Z,7.35
2023-05-21T15:22:41.486Z,9.35
2023-05-21T15:25:08.672Z,10.88
2023-05-21T15:27:35.441Z,7.03
2023-05-21T15:30:02.345Z,6.60
2023-05-21T15:32:29.335Z,10.27
2023-05-21T15:34:56.292Z,6.35
2023-05-21T15:37:22.992Z,6.28
2023-05-21T15:39:49.788Z,6.32
2023-05-21T15:42:16.446Z,6.65
2023-05-21T15:44:43.268Z,7.97
2023-05-21T15:47:10.104Z,5.75
2023-05-21T15:49:36.772Z,11.82
2023-05-21T15:52:03.538Z,7.20
2023-05-21T15:54:30.569Z,9.45
2023-05-21T15:56:57.228Z,8.10
2023-05-21T15:59:25.728Z,9.05
2023-05-21T16:01:52.361Z,9.05
2023-05-21T16:04:20.266Z,8.07
2023-05-21T16:06:47.484Z,11.40
2023-05-21T16:09:15.462Z,10.40
2023-05-21T16:11:44.606Z,7.88
2023-05-21T16:14:12.037Z,8.07
2023-05-21T16:16:39.043Z,7.53
2023-05-21T16:19:05.970Z,7.55
2023-05-21T16:21:32.966Z,7.50
2023-05-21T16:23:59.976Z,7.82
2023-05-21T16:26:26.598Z,7.47
2023-05-21T16:28:53.546Z,7.60
2023-05-21T16:31:20.410Z,10.23
2023-05-21T16:33:47.218Z,10.15
2023-05-21T16:36:15.059Z,7.13
2023-05-21T16:38:44.358Z,10.05
2023-05-21T16:41:11.066Z,7.32
2023-05-21T16:43:37.880Z,8.30
2023-05-21T16:46:04.889Z,9.05
2023-05-21T16:48:32.589Z,8.65
2023-05-21T16:50:59.614Z,8.27
2023-05-21T16:53:26.885Z,17.65
2023-05-21T16:55:53.696Z,8.52
2023-05-21T16:58:20.451Z,9.38
2023-05-21T17:00:47.305Z,12.40
2023-05-21T17:03:14.198Z,9.30
2023-05-21T17:05:41.575Z,8.50
2023-05-21T17:08:08.831Z,8.82
2023-05-21T17:10:35.629Z,8.65
2023-05-21T17:13:17.824Z,9.05
2023-05-21T17:15:47.988Z,9.35
2023-05-21T17:18:15.247Z,8.60
2023-05-21T17:20:43.668Z,8.55
2023-05-21T17:23:11.510Z,10.45
2023-05-21T17:25:38.564Z,6.40
2023-05-21T17:28:05.784Z,8.27
2023-05-21T17:30:32.490Z,7.50
2023-05-21T17:33:01.727Z,7.40
2023-05-21T17:35:28.503Z,7.30
2023-05-21T17:37:55.466Z,9.35
2023-05-21T17:40:24.310Z,9.10
2023-05-21T17:42:52.161Z,9.23
2023-05-21T17:45:18.872Z,11.13
2023-05-21T17:47:45.898Z,11.48
2023-05-21T17:50:12.582Z,8.00
2023-05-21T17:52:39.230Z,9.77
2023-05-21T17:55:06.253Z,7.50
2023-05-21T17:57:33.058Z,11.43
2023-05-21T17:59:59.674Z,8.15
2023-05-21T18:02:27.378Z,11.32
2023-05-21T18:04:54.247Z,9.68
2023-05-21T18:07:22.193Z,9.38
2023-05-21T18:09:49.444Z,15.63
2023-05-21T18:12:16.404Z,12.25
2023-05-21T18:14:43.054Z,20.75
2023-05-21T18:17:09.764Z,14.60
2023-05-21T18:19:36.500Z,15.13
2023-05-21T18:22:04.325Z,15.90
2023-05-21T18:24:31.193Z,16.27
2023-05-21T18:26:57.924Z,13.10
2023-05-21T18:29:24.572Z,13.38
2023-05-21T18:31:51.242Z,15.90
2023-05-21T18:34:17.937Z,13.07
2023-05-21T18:36:44.750Z,12.52
2023-05-21T18:39:11.616Z,12.65
2023-05-21T18:41:38.809Z,16.80
2023-05-21T18:44:06.073Z,14.35
2023-05-21T18:46:32.988Z,17.05
2023-05-21T18:49:00.134Z,10.95
2023-05-21T18:51:26.902Z,13.60
2023-05-21T18:53:53.555Z,13.85
2023-05-21T18:56:21.669Z,14.15
2023-05-21T18:58:48.487Z,11.27
2023-05-21T19:01:15.357Z,13.68
2023-05-21T19:03:42.113Z,11.48
2023-05-21T19:06:08.997Z,10.40
2023-05-21T19:08:35.704Z,11.38
2023-05-21T19:11:02.330Z,16.55
2023-05-21T19:13:29.445Z,12.32
2023-05-21T19:15:58.178Z,11.73
2023-05-21T19:18:30.211Z,20.27
2023-05-21T19:20:57.348Z,12.75
2023-05-21T19:23:24.752Z,16.90
2023-05-21T19:25:51.581Z,22.02
2023-05-21T19:28:18.784Z,17.30
2023-05-21T19:30:46.429Z,17.33
2023-05-21T19:33:13.515Z,13.10
2023-05-21T19:35:41.817Z,15.93
2023-05-21T19:38:10.419Z,14.13
2023-05-21T19:40:37.220Z,14.80
2023-05-21T19:43:04.265Z,17.13
2023-05-21T19:45:31.097Z,11.82
2023-05-21T19:47:59.452Z,15.38
2023-05-21T19:50:28.374Z,15.20
2023-05-21T19:52:59.241Z,15.60
2023-05-21T19:55:26.607Z,14.82
2023-05-21T19:57:53.330Z,14.70
2023-05-21T20:00:20.288Z,13.60
2023-05-21T20:02:47.068Z,21.73
2023-05-21T20:05:13.883Z,18.42
2023-05-21T20:07:43.800Z,15.70
2023-05-21T20:10:10.774Z,18.45
2023-05-21T20:12:38.154Z,21.48
2023-05-21T20:15:06.704Z,17.90
2023-05-21T20:17:35.837Z,16.98
2023-05-21T20:20:07.276Z,19.73
2023-05-21T20:22:33.872Z,17.98
2023-05-21T20:25:01.658Z,16.73
2023-05-21T20:27:28.306Z,21.15
2023-05-21T20:29:55.118Z,14.63
2023-05-21T20:32:21.852Z,20.70
2023-05-21T20:34:58.825Z,14.10
2023-05-21T20:37:32.121Z,14.48
2023-05-21T20:39:59.836Z,14.90
2023-05-21T20:42:28.489Z,15.73
2023-05-21T20:44:55.464Z,11.68
2023-05-21T20:47:23.309Z,15.70
2023-05-21T20:49:53.614Z,18.65
2023-05-21T20:52:20.832Z,12.20
2023-05-21T20:54:48.751Z,13.50
2023-05-21T20:57:15.935Z,12.65
2023-05-21T20:59:43.199Z,12.98
2023-05-21T21:02:11.200Z,13.48
2023-05-21T21:04:37.914Z,9.85
2023-05-21T21:07:07.782Z,11.82
2023-05-21T21:09:34.507Z,13.75
2023-05-21T21:12:06.235Z,12.45
2023-05-21T21:14:38.134Z,12.13
2023-05-21T21:17:04.918Z,14.65
2023-05-21T21:19:31.597Z,13.15
2023-05-21T21:21:58.458Z,13.57
2023-05-21T21:24:28.024Z,10.82
2023-05-21T21:26:55.173Z,12.20
2023-05-21T21:29:21.966Z,12.68
2023-05-21T21:31:52.277Z,11.85
2023-05-21T21:34:18.947Z,12.05
2023-05-21T21:36:45.615Z,14.55
2023-05-21T21:39:12.268Z,13.40
2023-05-21T21:41:40.740Z,11.57
2023-05-21T21:44:07.632Z,13.07
2023-05-21T21:46:34.325Z,12.43
2023-05-21T21:49:01.027Z,15.07
2023-05-21T21:51:27.701Z,12.32
2023-05-21T21:53:54.412Z,13.70
2023-05-21T21:56:21.978Z,13.63
2023-05-21T21:58:48.656Z,16.73
2023-05-21T22:01:15.464Z,12.20
2023-05-21T22:03:42.147Z,13.95
2023-05-21T22:06:08.774Z,12.60
2023-05-21T22:08:35.660Z,12.80
2023-05-21T22:11:03.024Z,14.23
2023-05-21T22:13:30.166Z,12.23
2023-05-21T22:15:57.263Z,13.68
2023-05-21T22:18:38.841Z,11.43
2023-05-21T22:21:09.324Z,15.60
2023-05-21T22:23:37.047Z,11.02
2023-05-21T22:26:03.949Z,11.05
2023-05-21T22:28:30.717Z,15.48
2023-05-21T22:30:57.861Z,14.25
2023-05-21T22:33:24.945Z,12.80
2023-05-21T22:35:51.569Z,13.80
2023-05-21T22:38:18.393Z,13.02
2023-05-21T22:40:45.059Z,14.10
2023-05-21T22:43:11.671Z,12.82
2023-05-21T22:45:38.492Z,12.48
2023-05-21T22:48:07.126Z,15.35
2023-05-21T22:50:34.089Z,14.88
2023-05-21T22:53:00.833Z,13.45
2023-05-21T22:55:27.457Z,11.98
2023-05-21T22:57:54.187Z,12.32
2023-05-21T23:00:21.053Z,11.27
2023-05-21T23:02:48.213Z,11.57
2023-05-21T23:05:15.012Z,17.02
2023-05-21T23:07:42.111Z,13.57
2023-05-21T23:10:09.146Z,14.57
2023-05-21T23:12:36.577Z,13.57
2023-05-21T23:15:04.364Z,14.05
2023-05-21T23:17:31.140Z,12.25
2023-05-21T23:19:59.284Z,13.20
2023-05-21T23:22:26.186Z,15.35
2023-05-21T23:24:54.161Z,14.00
2023-05-21T23:27:20.929Z,13.38
2023-05-21T23:29:47.596Z,12.65
2023-05-21T23:32:14.321Z,13.13
2023-05-21T23:34:41.870Z,12.65
2023-05-21T23:37:08.581Z,14.95
2023-05-21T23:39:36.593Z,13.13
2023-05-21T23:42:03.373Z,14.70
2023-05-21T23:44:30.058Z,12.98
2023-05-21T23:46:56.911Z,12.43
2023-05-21T23:49:23.741Z,13.85
2023-05-21T23:51:50.669Z,12.55
2023-05-21T23:54:17.612Z,14.45
2023-05-21T23:56:44.286Z,14.82
2023-05-21T23:59:10.945Z,14.68
